Time;durP1;ratioP1;P1;durP2;ratioP2;P2;SDS_P1;SDS_P2;PMS_P1;PMS_P2;Temp;Humidity;BMP_temperature;BMP_pressure;BME280_temperature;BME280_humidity;BME280_pressure;Samples;Min_cycle;Max_cycle;Signal;HPM_P1;HPM_P2
2022/12/28 00:01:20;;;;;;;;;;;;;;;6.61;62.61;100969.75;5077231;28;19928;-57
2022/12/28 00:03:46;;;;;;;;;;;;;;;6.65;62.55;100954.97;5086658;28;19920;-58
2022/12/28 00:06:11;;;;;;;;;;;;;;;6.63;62.46;100962.81;5085250;28;20375;-56
2022/12/28 00:08:37;;;;;;;;;;;;;;;6.87;61.96;100963.75;5084063;28;19927;-58
2022/12/28 00:11:04;;;;;;;;;;;;;;;6.81;62.15;100966.34;5085408;28;20272;-57
2022/12/28 00:13:30;;;;;;;;;;;;;;;6.88;61.89;100961.13;5080565;28;19929;-59
2022/12/28 00:15:55;;;;;;;;;;;;;;;6.82;61.85;100968.06;5089749;28;19927;-58
2022/12/28 00:18:21;;;;;;;;;;;;;;;6.99;61.80;100966.41;5091725;28;19974;-58
2022/12/28 00:20:59;;;;;;;;;;;;;;;6.89;61.77;100969.84;5072408;28;19934;-57
2022/12/28 00:23:25;;;;;;;;;;;;;;;6.87;61.70;100967.25;5083000;28;19931;-57
2022/12/28 00:25:51;;;;;;;;;;;;;;;6.97;61.67;100965.50;5075570;28;19921;-57
2022/12/28 00:28:16;;;;;;;;;;;;;;;6.97;61.43;100964.63;5089619;28;19924;-56
2022/12/28 00:30:41;;;;;;;;;;;;;;;7.26;61.13;100964.69;5077045;28;19924;-58
2022/12/28 00:33:07;;;;;;;;;;;;;;;7.09;61.14;100973.38;5094071;28;19920;-58
2022/12/28 00:35:32;;;;;;;;;;;;;;;7.19;60.98;100962.97;5083186;28;19955;-58
2022/12/28 00:37:57;;;;;;;;;;;;;;;7.12;61.17;100968.16;5080355;28;19950;-57
2022/12/28 00:40:22;;;;;;;;;;;;;;;7.14;60.94;100961.22;5099858;28;20439;-58
2022/12/28 00:42:48;;;;;;;;;;;;;;;7.20;60.92;100962.06;5079557;28;19920;-58
2022/12/28 00:45:13;;;;;;;;;;;;;;;7.26;60.75;100955.13;5099488;28;19983;-55
2022/12/28 00:47:38;;;;;;;;;;;;;;;7.21;60.66;100955.97;5097583;28;19927;-58
2022/12/28 00:50:04;;;;;;;;;;;;;;;7.10;61.06;100964.69;5089431;28;20058;-56
2022/12/28 00:52:29;;;;;;;;;;;;;;;7.08;60.98;100955.09;5083869;28;19928;-58
2022/12/28 00:54:54;;;;;;;;;;;;;;;7.14;60.91;100949.84;5083724;28;20303;-57
2022/12/28 00:57:20;;;;;;;;;;;;;;;7.13;60.76;100956.81;5081069;28;19978;-57
2022/12/28 00:59:45;;;;;;;;;;;;;;;7.16;60.59;100962.06;5079589;28;19963;-57
2022/12/28 01:02:10;;;;;;;;;;;;;;;7.24;60.58;100946.41;5091524;28;19925;-57
2022/12/28 01:04:36;;;;;;;;;;;;;;;7.22;60.37;100947.25;5086132;28;19924;-57
2022/12/28 01:07:01;;;;;;;;;;;;;;;7.08;60.74;100945.50;5079114;28;20493;-57
2022/12/28 01:09:26;;;;;;;;;;;;;;;7.11;60.79;100940.28;5080282;28;19932;-58
2022/12/28 01:11:51;;;;;;;;;;;;;;;7.18;60.76;100935.06;5085646;28;19970;-57
2022/12/28 01:14:17;;;;;;;;;;;;;;;7.21;60.58;100929.84;5079094;28;20363;-56
2022/12/28 01:16:42;;;;;;;;;;;;;;;7.11;60.67;100932.44;5078955;28;20418;-57
2022/12/28 01:19:10;;;;;;;;;;;;;;;6.99;60.88;100928.94;5080837;28;19925;-57
2022/12/28 01:21:36;;;;;;;;;;;;;;;7.12;60.79;100923.72;5079085;28;19927;-55
2022/12/28 01:24:02;;;;;;;;;;;;;;;7.19;60.47;100921.13;5088217;28;19928;-56
2022/12/28 01:26:28;;;;;;;;;;;;;;;7.21;60.21;100929.84;5091241;28;19921;-57
2022/12/28 01:28:53;;;;;;;;;;;;;;;7.22;60.25;100934.19;5087641;28;20273;-57
2022/12/28 01:31:20;;;;;;;;;;;;;;;7.34;60.15;100942.03;5081731;28;19927;-57
2022/12/28 01:33:45;;;;;;;;;;;;;;;7.31;59.89;100935.09;5078914;28;19977;-56
2022/12/28 01:36:15;;;;;;;;;;;;;;;7.40;59.83;100936.81;5083879;28;20026;-58
2022/12/28 01:38:41;;;;;;;;;;;;;;;7.49;59.77;100930.72;5089773;28;19920;-57
2022/12/28 01:41:07;;;;;;;;;;;;;;;7.58;59.63;100934.22;5086976;28;20272;-57
2022/12/28 01:43:43;;;;;;;;;;;;;;;7.63;59.34;100935.06;5080924;28;19920;-56
2022/12/28 01:46:11;;;;;;;;;;;;;;;7.69;59.25;100930.69;5077476;28;19916;-55
2022/12/28 01:48:42;;;;;;;;;;;;;;;7.70;58.97;100935.94;5092426;28;19970;-56
2022/12/28 01:51:07;;;;;;;;;;;;;;;7.69;58.91;100928.09;5091036;28;19922;-56
2022/12/28 01:53:32;;;;;;;;;;;;;;;7.64;58.97;100926.34;5079107;28;20011;-58
2022/12/28 01:55:58;;;;;;;;;;;;;;;7.52;59.08;100918.50;5079969;28;20326;-53
2022/12/28 01:58:27;;;;;;;;;;;;;;;7.52;59.21;100921.13;5085622;28;19928;-55
2022/12/28 02:00:52;;;;;;;;;;;;;;;7.42;59.47;100916.78;5089304;28;20015;-56
2022/12/28 02:03:20;;;;;;;;;;;;;;;7.39;59.53;100919.41;5080158;28;20011;-57
2022/12/28 02:05:48;;;;;;;;;;;;;;;7.35;59.74;100915.03;5081006;28;20011;-57
2022/12/28 02:08:16;;;;;;;;;;;;;;;7.27;59.75;100904.59;5087866;28;20118;-57
2022/12/28 02:10:42;;;;;;;;;;;;;;;7.21;59.99;100909.78;5078083;28;20015;-57
2022/12/28 02:13:08;;;;;;;;;;;;;;;7.08;60.04;100903.69;5082887;28;19923;-57
2022/12/28 02:15:34;;;;;;;;;;;;;;;7.00;60.37;100905.44;5082620;28;19982;-58
2022/12/28 02:18:00;;;;;;;;;;;;;;;7.00;60.66;100900.19;5088876;28;19936;-57
2022/12/28 02:20:29;;;;;;;;;;;;;;;7.05;60.45;100908.91;5080800;28;19967;-58
2022/12/28 02:22:55;;;;;;;;;;;;;;;7.09;60.42;100901.94;5088119;28;19920;-57
2022/12/28 02:25:26;;;;;;;;;;;;;;;7.16;59.95;100896.72;5078611;28;20046;-57
2022/12/28 02:28:03;;;;;;;;;;;;;;;7.29;59.82;100897.59;5079985;28;19920;-56
2022/12/28 02:30:31;;;;;;;;;;;;;;;7.43;59.61;100907.19;5078200;28;19920;-57
2022/12/28 02:33:08;;;;;;;;;;;;;;;7.48;59.46;100908.94;5086275;28;19975;-56
2022/12/28 02:35:47;;;;;;;;;;;;;;;7.61;59.31;100909.78;5079916;28;19935;-57
2022/12/28 02:38:18;;;;;;;;;;;;;;;7.64;59.29;100910.66;5084977;28;19924;-57
2022/12/28 02:40:46;;;;;;;;;;;;;;;7.71;59.45;100905.44;5083739;28;20383;-57
2022/12/28 02:43:12;;;;;;;;;;;;;;;7.65;59.19;100895.81;5081036;28;20003;-58
2022/12/28 02:51:09;;;;;;;;;;;;;;;7.49;59.24;100888.88;5078958;28;20344;-57
2022/12/28 02:53:34;;;;;;;;;;;;;;;7.51;59.38;100876.69;5077830;28;19963;-57
2022/12/28 02:56:08;;;;;;;;;;;;;;;7.59;59.13;100878.41;5090933;28;19924;-58
2022/12/28 02:58:53;;;;;;;;;;;;;;;7.33;59.26;100872.34;5079846;28;19943;-57
2022/12/28 03:01:18;;;;;;;;;;;;;;;7.30;59.36;100857.53;5084435;28;19989;-57
2022/12/28 03:03:56;;;;;;;;;;;;;;;7.22;59.27;100856.66;5089164;28;20383;-58
2022/12/28 03:09:14;;;;;;;;;;;;;;;7.37;58.76;100853.16;5076774;28;19934;-57
2022/12/28 03:11:39;;;;;;;;;;;;;;;7.02;58.93;100845.31;5081891;28;19921;-56
2022/12/28 03:14:07;;;;;;;;;;;;;;;6.90;59.19;100854.03;5088453;28;19927;-58
2022/12/28 03:33:12;;;;;;;;;;;;;;;6.25;61.29;100849.53;5079730;28;19930;-57
2022/12/28 03:35:54;;;;;;;;;;;;;;;6.23;61.45;100848.69;5087065;28;20019;-57
2022/12/28 03:38:27;;;;;;;;;;;;;;;6.16;61.71;100843.41;5083416;28;19920;-56
2022/12/28 03:41:07;;;;;;;;;;;;;;;6.39;61.27;100837.41;5075722;28;19920;-57
2022/12/28 03:43:41;;;;;;;;;;;;;;;6.47;61.04;100830.47;5088769;28;19920;-56
2022/12/28 03:46:22;;;;;;;;;;;;;;;6.61;60.63;100823.53;5081043;28;20417;-57
2022/12/28 03:48:48;;;;;;;;;;;;;;;6.82;60.26;100827.03;5086430;28;19917;-56
2022/12/28 03:51:14;;;;;;;;;;;;;;;6.83;60.04;100823.56;5077071;28;19970;-57
2022/12/28 03:53:44;;;;;;;;;;;;;;;6.82;59.93;100827.03;5085562;28;20358;-58
2022/12/28 03:56:10;;;;;;;;;;;;;;;6.84;59.81;100814.84;5088005;28;19924;-57
2022/12/28 03:58:36;;;;;;;;;;;;;;;6.85;59.94;100809.63;5084001;28;19927;-57
2022/12/28 04:01:01;;;;;;;;;;;;;;;7.00;59.94;100805.28;5073793;28;19924;-57
2022/12/28 04:03:26;;;;;;;;;;;;;;;7.05;59.69;100799.16;5090467;28;19940;-57
2022/12/28 04:05:53;;;;;;;;;;;;;;;7.08;59.75;100796.56;5087221;28;20401;-57
2022/12/28 04:08:18;;;;;;;;;;;;;;;7.13;59.54;100796.53;5078667;28;19965;-57
2022/12/28 04:10:44;;;;;;;;;;;;;;;7.10;59.48;100794.81;5083008;28;19928;-57
2022/12/28 04:13:09;;;;;;;;;;;;;;;7.10;59.52;100797.44;5085468;28;19975;-57
2022/12/28 04:15:34;;;;;;;;;;;;;;;6.86;60.15;100786.97;5083473;28;21254;-57
2022/12/28 04:18:00;;;;;;;;;;;;;;;6.77;60.42;100787.84;5086073;28;19927;-57
2022/12/28 04:20:25;;;;;;;;;;;;;;;6.70;60.46;100777.41;5088149;28;19977;-55
2022/12/28 04:22:50;;;;;;;;;;;;;;;6.74;60.64;100780.00;5088686;28;20357;-58
2022/12/28 04:25:16;;;;;;;;;;;;;;;6.60;60.88;100773.91;5084739;28;19924;-57
2022/12/28 04:27:41;;;;;;;;;;;;;;;6.61;60.98;100767.81;5084070;28;19931;-59
2022/12/28 04:30:06;;;;;;;;;;;;;;;6.67;60.96;100754.78;5087397;28;20276;-58
2022/12/28 04:32:32;;;;;;;;;;;;;;;6.68;61.05;100758.25;5076809;28;19924;-57
2022/12/28 04:34:57;;;;;;;;;;;;;;;6.69;60.90;100758.25;5078777;28;19924;-58
2022/12/28 04:37:22;;;;;;;;;;;;;;;6.70;61.08;100754.75;5088490;28;20357;-57
2022/12/28 04:39:48;;;;;;;;;;;;;;;6.83;61.19;100755.66;5085169;28;19924;-57
2022/12/28 04:42:13;;;;;;;;;;;;;;;6.90;61.09;100757.38;5084449;28;20346;-57
2022/12/28 04:44:38;;;;;;;;;;;;;;;7.00;60.79;100748.66;5081953;28;19964;-56
2022/12/28 04:47:03;;;;;;;;;;;;;;;6.87;60.90;100742.59;5077320;28;20023;-58
2022/12/28 04:49:29;;;;;;;;;;;;;;;6.99;60.86;100738.22;5087719;28;19936;-57
2022/12/28 04:51:54;;;;;;;;;;;;;;;7.09;60.56;100730.34;5085054;28;19924;-57
2022/12/28 04:54:19;;;;;;;;;;;;;;;7.13;60.50;100724.25;5074655;28;19932;-58
2022/12/28 04:56:45;;;;;;;;;;;;;;;7.04;60.59;100719.03;5075904;28;19978;-58
2022/12/28 04:59:10;;;;;;;;;;;;;;;7.18;60.45;100716.38;5079350;28;19935;-57
2022/12/28 05:01:35;;;;;;;;;;;;;;;7.23;60.33;100726.84;5085906;28;19936;-57
2022/12/28 05:04:00;;;;;;;;;;;;;;;7.25;60.20;100719.88;5075306;28;19924;-57
2022/12/28 05:06:26;;;;;;;;;;;;;;;7.30;60.18;100723.31;5078206;28;19932;-57
2022/12/28 05:08:51;;;;;;;;;;;;;;;7.18;60.30;100715.53;5073761;28;20307;-59
2022/12/28 05:11:21;;;;;;;;;;;;;;;7.23;60.31;100717.28;5074891;28;19931;-58
2022/12/28 05:13:47;;;;;;;;;;;;;;;7.27;60.17;100724.22;5076551;28;20395;-57
2022/12/28 05:16:14;;;;;;;;;;;;;;;7.04;60.74;100724.28;5079412;28;19921;-57
2022/12/28 05:18:39;;;;;;;;;;;;;;;7.10;60.74;100718.16;5075267;28;19944;-57
2022/12/28 05:21:10;;;;;;;;;;;;;;;6.97;60.99;100714.69;5085185;28;20416;-57
2022/12/28 05:23:36;;;;;;;;;;;;;;;6.96;61.23;100719.94;5085303;28;19928;-57
2022/12/28 05:26:02;;;;;;;;;;;;;;;7.01;61.25;100712.94;5085560;28;20303;-57
2022/12/28 05:28:27;;;;;;;;;;;;;;;7.02;61.27;100714.69;5076482;28;19928;-57
2022/12/28 05:30:57;;;;;;;;;;;;;;;7.04;61.14;100703.38;5085090;28;19924;-57
2022/12/28 05:33:22;;;;;;;;;;;;;;;6.98;61.30;100700.78;5081791;28;20367;-57
2022/12/28 05:35:47;;;;;;;;;;;;;;;6.95;61.39;100686.84;5082150;28;20082;-56
2022/12/28 05:38:13;;;;;;;;;;;;;;;6.86;61.23;100682.50;5090257;28;20034;-57
2022/12/28 05:40:38;;;;;;;;;;;;;;;7.05;61.14;100671.13;5086495;28;19978;-56
2022/12/28 05:43:03;;;;;;;;;;;;;;;7.05;61.16;100663.28;5093195;28;20402;-56
2022/12/28 05:45:28;;;;;;;;;;;;;;;7.03;61.21;100661.56;5088199;28;19974;-57
2022/12/28 05:47:54;;;;;;;;;;;;;;;6.98;61.16;100664.22;5084424;28;20313;-55
2022/12/28 05:50:19;;;;;;;;;;;;;;;7.05;61.14;100663.28;5079588;28;19925;-58
2022/12/28 05:52:44;;;;;;;;;;;;;;;7.02;61.19;100663.31;5077397;28;20008;-56
2022/12/28 05:55:10;;;;;;;;;;;;;;;7.01;61.30;100656.34;5090189;28;19935;-57
2022/12/28 05:57:35;;;;;;;;;;;;;;;7.00;61.12;100662.44;5079929;28;20367;-57
2022/12/28 06:00:01;;;;;;;;;;;;;;;7.03;61.23;100658.97;5081556;28;19924;-58
2022/12/28 06:02:26;;;;;;;;;;;;;;;6.96;61.25;100657.25;5082855;28;20453;-57
2022/12/28 06:04:52;;;;;;;;;;;;;;;7.03;61.10;100652.00;5078093;28;19921;-58
2022/12/28 06:07:17;;;;;;;;;;;;;;;7.00;61.28;100641.53;5076626;28;20438;-58
2022/12/28 06:09:42;;;;;;;;;;;;;;;7.00;61.24;100631.09;5078153;28;19930;-58
2022/12/28 06:12:08;;;;;;;;;;;;;;;7.01;61.16;100634.56;5078446;28;19920;-58
2022/12/28 06:14:33;;;;;;;;;;;;;;;6.94;61.32;100632.84;5077810;28;19950;-58
2022/12/28 06:16:58;;;;;;;;;;;;;;;7.00;61.19;100635.47;5085524;28;19963;-58
2022/12/28 06:19:23;;;;;;;;;;;;;;;6.96;61.32;100628.50;5089286;28;19928;-58
2022/12/28 06:21:49;;;;;;;;;;;;;;;6.99;61.12;100628.50;5089300;28;20398;-58
2022/12/28 06:24:16;;;;;;;;;;;;;;;6.87;61.38;100617.19;5090211;28;20344;-58
2022/12/28 06:26:42;;;;;;;;;;;;;;;6.86;61.36;100618.09;5080657;28;19959;-57
2022/12/28 06:29:07;;;;;;;;;;;;;;;6.79;61.62;100623.31;5080431;28;19959;-57
2022/12/28 06:31:34;;;;;;;;;;;;;;;6.68;61.82;100618.13;5078526;28;19928;-58
2022/12/28 06:34:00;;;;;;;;;;;;;;;6.64;61.97;100622.47;5076415;28;19917;-58
2022/12/28 06:36:27;;;;;;;;;;;;;;;6.60;61.98;100618.13;5081425;28;19924;-58
2022/12/28 06:38:53;;;;;;;;;;;;;;;6.65;62.15;100620.72;5093842;28;20363;-56
2022/12/28 06:41:19;;;;;;;;;;;;;;;6.60;62.24;100605.06;5081284;28;19920;-58
2022/12/28 06:43:45;;;;;;;;;;;;;;;6.66;62.15;100606.78;5081694;28;19943;-58
2022/12/28 06:46:11;;;;;;;;;;;;;;;6.71;62.13;100604.19;5080513;28;20284;-58
2022/12/28 06:48:37;;;;;;;;;;;;;;;6.70;62.02;100616.34;5077864;28;19929;-59
2022/12/28 06:51:06;;;;;;;;;;;;;;;6.75;61.93;100608.53;5078470;28;19942;-58
2022/12/28 06:53:33;;;;;;;;;;;;;;;6.76;61.79;100602.44;5078859;28;19963;-58
2022/12/28 06:56:00;;;;;;;;;;;;;;;6.84;61.59;100600.66;5075674;28;19928;-58
2022/12/28 06:58:26;;;;;;;;;;;;;;;6.81;61.69;100601.53;5076620;28;20021;-58
2022/12/28 07:00:52;;;;;;;;;;;;;;;6.82;61.57;100605.00;5083166;28;19969;-58
2022/12/28 07:03:17;;;;;;;;;;;;;;;6.88;61.48;100598.03;5090740;28;19928;-57
2022/12/28 07:05:43;;;;;;;;;;;;;;;6.95;61.28;100592.81;5094856;28;19916;-58
2022/12/28 07:08:08;;;;;;;;;;;;;;;6.94;61.33;100606.72;5078014;28;19917;-57
2022/12/28 07:10:34;;;;;;;;;;;;;;;6.99;61.21;100602.38;5076386;28;19920;-58
2022/12/28 07:12:59;;;;;;;;;;;;;;;6.99;61.25;100590.19;5079402;28;19927;-58
2022/12/28 07:15:24;;;;;;;;;;;;;;;6.98;61.14;100590.16;5079997;28;19969;-58
2022/12/28 07:17:50;;;;;;;;;;;;;;;7.06;61.00;100585.78;5080973;28;19948;-59
2022/12/28 07:20:15;;;;;;;;;;;;;;;7.04;60.90;100588.41;5083740;28;20376;-58
2022/12/28 07:22:40;;;;;;;;;;;;;;;7.12;60.94;100575.31;5091037;28;19924;-58
2022/12/28 07:25:06;;;;;;;;;;;;;;;7.18;60.75;100571.78;5085650;28;19928;-58
2022/12/28 07:27:33;;;;;;;;;;;;;;;7.16;60.74;100562.22;5082707;28;20362;-58
2022/12/28 07:29:58;;;;;;;;;;;;;;;7.09;60.68;100557.88;5087806;28;20012;-58
2022/12/28 07:32:23;;;;;;;;;;;;;;;7.05;60.98;100564.00;5084651;28;20011;-58
2022/12/28 07:34:49;;;;;;;;;;;;;;;7.06;60.80;100565.78;5078703;28;20014;-58
2022/12/28 07:37:14;;;;;;;;;;;;;;;7.12;60.62;100570.94;5078495;28;20395;-58
2022/12/28 07:39:39;;;;;;;;;;;;;;;7.24;60.33;100559.56;5079430;28;19920;-58
2022/12/28 07:42:07;;;;;;;;;;;;;;;7.28;60.29;100555.19;5077435;28;20061;-58
2022/12/28 07:44:32;;;;;;;;;;;;;;;7.39;59.87;100558.63;5083238;28;19924;-58
2022/12/28 07:46:57;;;;;;;;;;;;;;;7.32;60.19;100551.69;5075781;28;20411;-58
2022/12/28 07:49:22;;;;;;;;;;;;;;;7.27;60.13;100543.00;5080933;28;19924;-59
2022/12/28 07:51:48;;;;;;;;;;;;;;;7.24;60.33;100548.25;5102810;28;19920;-57
2022/12/28 07:54:13;;;;;;;;;;;;;;;7.25;60.22;100548.22;5076246;28;20380;-58
2022/12/28 07:56:39;;;;;;;;;;;;;;;7.12;60.33;100550.03;5080492;28;19924;-58
2022/12/28 07:59:05;;;;;;;;;;;;;;;7.20;60.43;100543.91;5078674;28;19971;-57
2022/12/28 08:01:31;;;;;;;;;;;;;;;7.26;60.42;100541.25;5077048;28;19924;-58
2022/12/28 08:03:58;;;;;;;;;;;;;;;7.35;60.17;100538.59;5075973;28;19923;-58
2022/12/28 08:06:24;;;;;;;;;;;;;;;7.30;59.98;100538.63;5086442;28;19920;-58
2022/12/28 08:08:50;;;;;;;;;;;;;;;7.40;59.88;100524.63;5074993;28;19927;-58
2022/12/28 08:11:17;;;;;;;;;;;;;;;7.39;59.94;100528.13;5082124;28;20269;-58
2022/12/28 08:13:44;;;;;;;;;;;;;;;7.34;59.96;100529.00;5075522;28;19921;-58
2022/12/28 08:16:13;;;;;;;;;;;;;;;7.38;59.74;100528.13;5075241;28;19974;-58
2022/12/28 08:18:39;;;;;;;;;;;;;;;7.36;59.90;100515.06;5075745;28;19928;-58
2022/12/28 08:21:07;;;;;;;;;;;;;;;7.35;59.97;100510.72;5075423;28;19920;-58
2022/12/28 08:23:32;;;;;;;;;;;;;;;7.33;60.04;100511.59;5078731;28;19959;-59
2022/12/28 08:26:24;;;;;;;;;;;;;;;7.38;59.97;100505.47;5075447;28;19959;-59
2022/12/28 08:28:51;;;;;;;;;;;;;;;7.52;59.78;100513.22;5075841;28;19977;-59
2022/12/28 08:31:18;;;;;;;;;;;;;;;7.52;59.77;100515.81;5079901;28;19920;-59
2022/12/28 08:33:43;;;;;;;;;;;;;;;7.48;59.55;100508.88;5080861;28;19982;-57
2022/12/28 08:36:08;;;;;;;;;;;;;;;7.53;59.51;100512.31;5093899;28;19925;-58
2022/12/28 08:38:34;;;;;;;;;;;;;;;7.57;59.51;100511.44;5088793;28;19931;-55
2022/12/28 08:41:01;;;;;;;;;;;;;;;7.52;59.44;100509.72;5082806;28;19929;-58
2022/12/28 08:43:27;;;;;;;;;;;;;;;7.53;59.54;100503.63;5099154;28;19925;-55
2022/12/28 08:46:06;;;;;;;;;;;;;;;7.57;59.42;100507.94;5090145;28;20019;-58
2022/12/28 08:48:33;;;;;;;;;;;;;;;7.61;59.50;100502.69;5085618;28;19927;-57
2022/12/28 08:51:02;;;;;;;;;;;;;;;7.63;59.43;100506.16;5086689;28;19920;-56
2022/12/28 08:53:27;;;;;;;;;;;;;;;7.69;59.55;100502.63;5076991;28;20372;-58
2022/12/28 08:55:53;;;;;;;;;;;;;;;7.69;59.51;100497.38;5097529;28;19920;-59
2022/12/28 08:58:18;;;;;;;;;;;;;;;7.68;59.39;100497.41;5092759;28;19928;-58
2022/12/28 09:00:43;;;;;;;;;;;;;;;7.75;59.47;100488.66;5085239;28;20011;-58
2022/12/28 09:03:09;;;;;;;;;;;;;;;7.63;59.73;100495.69;5075908;28;19921;-58
2022/12/28 09:05:38;;;;;;;;;;;;;;;7.73;59.52;100493.88;5081979;28;20019;-58
2022/12/28 09:08:03;;;;;;;;;;;;;;;7.71;59.57;100493.03;5098431;28;19924;-58
2022/12/28 09:10:28;;;;;;;;;;;;;;;7.80;59.45;100495.56;5096766;28;19928;-57
2022/12/28 09:12:53;;;;;;;;;;;;;;;7.81;59.13;100488.56;5078058;28;19962;-59
2022/12/28 09:15:19;;;;;;;;;;;;;;;7.88;59.43;100493.75;5091073;28;19966;-57
2022/12/28 09:17:44;;;;;;;;;;;;;;;7.96;59.33;100492.81;5079886;28;20369;-58
2022/12/28 09:20:10;;;;;;;;;;;;;;;8.01;58.87;100496.25;5078940;28;19932;-59
2022/12/28 09:22:35;;;;;;;;;;;;;;;7.97;58.97;100495.41;5079234;28;19932;-57
2022/12/28 09:25:00;;;;;;;;;;;;;;;7.97;58.92;100494.53;5082044;28;19921;-58
2022/12/28 09:27:25;;;;;;;;;;;;;;;7.96;59.04;100490.19;5079216;28;19928;-56
2022/12/28 09:29:51;;;;;;;;;;;;;;;7.98;58.93;100499.78;5079947;28;19932;-58
2022/12/28 09:32:16;;;;;;;;;;;;;;;7.89;58.84;100482.38;5091290;28;20011;-58
2022/12/28 09:34:41;;;;;;;;;;;;;;;7.79;59.01;100472.03;5091820;28;19926;-60
2022/12/28 09:37:07;;;;;;;;;;;;;;;7.81;58.95;100463.28;5093196;28;19924;-58
2022/12/28 09:39:32;;;;;;;;;;;;;;;7.90;59.12;100462.34;5093460;28;19942;-58
2022/12/28 09:42:00;;;;;;;;;;;;;;;7.87;58.88;100459.75;5092384;28;19931;-58
2022/12/28 09:44:26;;;;;;;;;;;;;;;8.02;58.93;100459.63;5078712;28;19923;-59
2022/12/28 09:47:00;;;;;;;;;;;;;;;8.01;58.68;100447.38;5096232;28;19928;-59
2022/12/28 09:49:40;;;;;;;;;;;;;;;7.87;58.60;100431.84;5094139;28;19920;-58
2022/12/28 09:52:26;;;;;;;;;;;;;;;8.03;58.56;100416.00;5080850;28;20345;-58
2022/12/28 09:54:51;;;;;;;;;;;;;;;8.14;58.37;100414.13;5087697;28;19946;-59
2022/12/28 09:57:17;;;;;;;;;;;;;;;8.15;58.22;100400.16;5089593;28;20742;-58
2022/12/28 09:59:44;;;;;;;;;;;;;;;8.15;57.96;100395.78;5086140;28;19924;-58
2022/12/28 10:02:16;;;;;;;;;;;;;;;8.28;57.96;100390.41;5083530;28;20296;-57
2022/12/28 10:04:42;;;;;;;;;;;;;;;8.31;57.93;100387.75;5081149;28;20338;-59
2022/12/28 10:07:08;;;;;;;;;;;;;;;8.34;57.58;100380.72;5082560;28;19924;-58
2022/12/28 10:09:34;;;;;;;;;;;;;;;8.38;57.48;100373.75;5080163;28;19966;-58
2022/12/28 10:12:09;;;;;;;;;;;;;;;8.36;57.55;100378.09;5086289;28;20046;-58
2022/12/28 10:14:35;;;;;;;;;;;;;;;8.43;57.25;100373.69;5089329;28;19916;-59
2022/12/28 10:17:00;;;;;;;;;;;;;;;8.42;57.49;100374.53;5082429;28;19977;-59
2022/12/28 10:19:27;;;;;;;;;;;;;;;8.43;57.22;100364.06;5093984;28;20307;-59
2022/12/28 10:21:57;;;;;;;;;;;;;;;8.43;57.30;100342.25;5092961;28;19928;-58
2022/12/28 10:24:23;;;;;;;;;;;;;;;8.61;56.88;100329.75;5080249;28;20065;-59
2022/12/28 10:26:48;;;;;;;;;;;;;;;8.57;56.87;100335.91;5083696;28;20419;-60
2022/12/28 10:29:21;;;;;;;;;;;;;;;8.61;56.75;100326.28;5092049;28;19924;-59
2022/12/28 10:32:11;;;;;;;;;;;;;;;8.62;56.44;100318.41;5079466;28;19920;-58
2022/12/28 10:34:51;;;;;;;;;;;;;;;8.82;56.36;100312.88;5080394;28;19924;-58
2022/12/28 10:37:17;;;;;;;;;;;;;;;8.88;56.20;100319.75;5074892;28;19925;-60
2022/12/28 10:39:52;;;;;;;;;;;;;;;8.88;55.94;100319.75;5085232;28;19978;-58
2022/12/28 10:42:28;;;;;;;;;;;;;;;8.91;56.04;100334.56;5084539;28;20040;-59
2022/12/28 10:44:59;;;;;;;;;;;;;;;8.93;56.01;100317.91;5082931;28;20390;-57
2022/12/28 10:47:24;;;;;;;;;;;;;;;8.90;56.00;100333.72;5079403;28;20399;-60
2022/12/28 10:49:50;;;;;;;;;;;;;;;8.83;56.02;100316.34;5081620;28;19927;-58
2022/12/28 10:52:17;;;;;;;;;;;;;;;8.92;56.10;100312.72;5081505;28;20020;-58
2022/12/28 10:54:43;;;;;;;;;;;;;;;8.79;55.87;100331.25;5086276;28;20065;-59
2022/12/28 10:57:18;;;;;;;;;;;;;;;8.64;56.00;100319.25;5075587;28;20007;-57
2022/12/28 10:59:45;;;;;;;;;;;;;;;8.54;56.56;100315.03;5075216;28;20291;-59
2022/12/28 11:02:27;;;;;;;;;;;;;;;8.73;56.38;100304.28;5077879;28;19924;-55
2022/12/28 11:04:53;;;;;;;;;;;;;;;8.66;55.95;100297.38;5077211;28;19971;-58
2022/12/28 11:07:27;;;;;;;;;;;;;;;8.77;55.83;100285.84;5086605;28;19965;-58
2022/12/28 11:09:53;;;;;;;;;;;;;;;8.94;55.62;100277.75;5079259;28;19920;-56
2022/12/28 11:12:22;;;;;;;;;;;;;;;9.02;55.38;100281.09;5076698;28;19977;-57
2022/12/28 11:14:48;;;;;;;;;;;;;;;9.02;55.32;100268.00;5076993;28;20342;-56
2022/12/28 11:17:14;;;;;;;;;;;;;;;9.11;55.11;100251.25;5081989;28;19920;-58
2022/12/28 11:19:39;;;;;;;;;;;;;;;9.26;54.92;100257.97;5079282;28;19947;-54
2022/12/28 11:22:08;;;;;;;;;;;;;;;9.26;54.71;100255.34;5074548;28;19964;-58
2022/12/28 11:24:33;;;;;;;;;;;;;;;9.00;54.64;100248.81;5075953;28;19916;-59
2022/12/28 11:26:58;;;;;;;;;;;;;;;9.27;54.80;100238.72;5077655;28;19931;-57
2022/12/28 11:29:24;;;;;;;;;;;;;;;9.22;54.52;100235.34;5076480;28;20011;-57
2022/12/28 11:31:57;;;;;;;;;;;;;;;9.25;54.72;100235.25;5084703;28;20302;-62
2022/12/28 11:34:24;;;;;;;;;;;;;;;9.33;54.38;100222.84;5091074;28;19931;-55
2022/12/28 11:36:50;;;;;;;;;;;;;;;9.23;54.40;100218.69;5089491;28;20003;-59
2022/12/28 11:39:24;;;;;;;;;;;;;;;9.18;54.16;100215.31;5091188;28;19963;-57
2022/12/28 11:41:51;;;;;;;;;;;;;;;9.38;54.30;100203.53;5088454;28;19962;-57
2022/12/28 11:44:28;;;;;;;;;;;;;;;9.34;54.18;100214.13;5093306;28;19924;-58
2022/12/28 11:46:58;;;;;;;;;;;;;;;9.35;54.26;100210.59;5092883;28;19922;-58
2022/12/28 11:49:26;;;;;;;;;;;;;;;9.18;54.27;100210.94;5093064;28;19923;-59
2022/12/28 11:52:09;;;;;;;;;;;;;;;9.28;54.37;100201.97;5093789;28;19977;-58
2022/12/28 11:54:36;;;;;;;;;;;;;;;8.94;54.66;100196.50;5091611;28;19973;-58
2022/12/28 11:57:04;;;;;;;;;;;;;;;8.94;54.61;100195.66;5092158;28;20298;-59
2022/12/28 11:59:33;;;;;;;;;;;;;;;9.04;54.73;100184.94;5092946;28;19920;-59
2022/12/28 12:02:22;;;;;;;;;;;;;;;9.09;54.75;100182.25;5093088;28;19962;-59
2022/12/28 12:04:47;;;;;;;;;;;;;;;9.02;54.53;100181.50;5092221;28;19919;-59
2022/12/28 12:07:14;;;;;;;;;;;;;;;9.03;54.72;100170.13;5093266;28;19927;-59
2022/12/28 12:09:42;;;;;;;;;;;;;;;9.05;54.72;100156.97;5093958;28;19951;-58
2022/12/28 12:12:13;;;;;;;;;;;;;;;9.03;54.60;100154.41;5093863;28;20257;-58
2022/12/28 12:14:44;;;;;;;;;;;;;;;9.00;54.75;100167.56;5093151;28;19920;-59
2022/12/28 12:17:22;;;;;;;;;;;;;;;9.03;54.84;100172.75;5093840;28;19923;-59
2022/12/28 12:19:49;;;;;;;;;;;;;;;8.96;54.77;100157.16;5092785;28;20272;-59
2022/12/28 12:22:20;;;;;;;;;;;;;;;8.87;54.83;100155.59;5094237;28;19916;-59
2022/12/28 12:24:53;;;;;;;;;;;;;;;8.88;54.82;100142.44;5094056;28;19963;-58
2022/12/28 12:27:25;;;;;;;;;;;;;;;9.02;54.88;100146.59;5093353;28;19948;-58
2022/12/28 12:29:52;;;;;;;;;;;;;;;9.05;54.76;100144.75;5093857;28;20379;-58
2022/12/28 12:32:22;;;;;;;;;;;;;;;8.86;55.12;100154.72;5093806;28;19939;-57
2022/12/28 12:34:54;;;;;;;;;;;;;;;8.78;55.32;100145.28;5093814;28;19919;-58
2022/12/28 12:37:19;;;;;;;;;;;;;;;8.64;55.54;100142.88;5094175;28;19950;-58
2022/12/28 12:39:55;;;;;;;;;;;;;;;8.81;55.48;100142.59;5093541;28;19942;-59
2022/12/28 12:42:23;;;;;;;;;;;;;;;8.70;55.79;100134.94;5096987;28;19916;-57
2022/12/28 12:44:48;;;;;;;;;;;;;;;8.60;55.72;100125.50;5097856;28;19917;-58
2022/12/28 12:47:34;;;;;;;;;;;;;;;8.63;55.82;100120.22;5097709;28;19916;-58
2022/12/28 12:50:21;;;;;;;;;;;;;;;8.59;56.18;100114.16;5099132;28;19968;-58
2022/12/28 12:52:59;;;;;;;;;;;;;;;8.50;56.09;100114.34;5113638;28;19917;-59
2022/12/28 12:55:27;;;;;;;;;;;;;;;8.66;56.06;100119.28;5097604;28;19920;-58
2022/12/28 12:57:57;;;;;;;;;;;;;;;8.57;56.35;100108.06;5097524;28;19932;-58
2022/12/28 13:00:24;;;;;;;;;;;;;;;8.78;56.21;100116.47;5097585;28;20477;-59
2022/12/28 13:03:09;;;;;;;;;;;;;;;8.56;56.16;100108.97;5097349;28;19924;-58
2022/12/28 13:05:36;;;;;;;;;;;;;;;8.60;56.24;100101.94;5097281;28;19916;-57
2022/12/28 13:08:02;;;;;;;;;;;;;;;8.68;56.10;100091.31;5096980;28;20331;-57
2022/12/28 13:10:36;;;;;;;;;;;;;;;8.79;56.10;100098.09;5097076;28;19916;-59
2022/12/28 13:13:02;;;;;;;;;;;;;;;8.82;55.96;100094.56;5097298;28;20010;-59
2022/12/28 13:15:28;;;;;;;;;;;;;;;8.82;56.10;100089.31;5097046;28;19916;-57